ESSB/BMA METAR and TAF weather

Enter ICAO airport designator
Station Type Date Time Source
ESSB METAR 2019/11/21 03:20 UTC NOAA

ESSB 210320Z AUTO 11013KT 9999 OVC007/// 07/06 Q1026


Station Type Date Time Source
ESSB Decoded METAR 2019/11/21 03:20 UTC NOAA

Stockholm / Bromma, Sweden (ESSB) 59-21N 017-57E 14M
Nov 20, 2019 - 10:20 PM EST / 2019.11.21 0320 UTC
Wind: from the ESE (110 degrees) at 15 MPH (13 KT):0
Visibility: greater than 7 mile(s):0
Sky conditions: overcast
Temperature: 44 F (7 C)
Dew Point: 42 F (6 C)
Relative Humidity: 93%
Pressure (altimeter): 30.30 in. Hg (1026 hPa)
ob: ESSB 210320Z AUTO 11013KT 9999 OVC007/// 07/06 Q1026
cycle: 3

Station Type Date Time Source
ESSB TAF 2017/03/27 06:35 UTC NOAA

TAF ESSB 270530Z 2706/2724 27008KT CAVOK
BECMG 2710/2713 29015G25KT

Example: see airport list